sensor_id;sensor_type;location;lat;lon;timestamp;pressure;altitude;pressure_sealevel;temperature;humidity
84994;BME280;75309;44.830;20.460;2024-03-17T00:02:10;101166.02;;;14.13;64.77
84994;BME280;75309;44.830;20.460;2024-03-17T00:04:38;101170.60;;;14.12;65.18
84994;BME280;75309;44.830;20.460;2024-03-17T00:07:06;101177.63;;;14.11;65.02
84994;BME280;75309;44.830;20.460;2024-03-17T00:09:34;101180.67;;;14.01;65.71
84994;BME280;75309;44.830;20.460;2024-03-17T00:12:03;101182.98;;;13.99;65.81
84994;BME280;75309;44.830;20.460;2024-03-17T00:14:31;101183.77;;;13.94;66.52
84994;BME280;75309;44.830;20.460;2024-03-17T00:16:59;101183.75;;;13.85;67.03
84994;BME280;75309;44.830;20.460;2024-03-17T00:19:27;101186.04;;;13.82;66.75
84994;BME280;75309;44.830;20.460;2024-03-17T00:21:54;101185.80;;;13.81;67.63
84994;BME280;75309;44.830;20.460;2024-03-17T00:24:22;101183.77;;;13.78;67.11
84994;BME280;75309;44.830;20.460;2024-03-17T00:26:50;101179.33;;;13.75;67.56
84994;BME280;75309;44.830;20.460;2024-03-17T00:29:17;101183.62;;;13.70;68.31
84994;BME280;75309;44.830;20.460;2024-03-17T00:31:45;101179.63;;;13.65;68.07
84994;BME280;75309;44.830;20.460;2024-03-17T00:34:13;101176.06;;;13.63;67.74
84994;BME280;75309;44.830;20.460;2024-03-17T00:36:41;101175.42;;;13.60;68.78
84994;BME280;75309;44.830;20.460;2024-03-17T00:39:09;101174.73;;;13.52;69.75
84994;BME280;75309;44.830;20.460;2024-03-17T00:41:38;101172.03;;;13.50;69.36
84994;BME280;75309;44.830;20.460;2024-03-17T00:44:06;101176.95;;;13.48;69.37
84994;BME280;75309;44.830;20.460;2024-03-17T00:46:34;101175.83;;;13.46;68.83
84994;BME280;75309;44.830;20.460;2024-03-17T00:49:02;101177.85;;;13.45;68.92
84994;BME280;75309;44.830;20.460;2024-03-17T00:51:30;101175.44;;;13.45;68.70
84994;BME280;75309;44.830;20.460;2024-03-17T00:53:58;101178.17;;;13.45;68.56
84994;BME280;75309;44.830;20.460;2024-03-17T00:56:26;101175.12;;;13.46;68.80
84994;BME280;75309;44.830;20.460;2024-03-17T00:58:56;101173.50;;;13.48;68.79
84994;BME280;75309;44.830;20.460;2024-03-17T01:01:24;101172.70;;;13.50;69.22
84994;BME280;75309;44.830;20.460;2024-03-17T01:03:52;101173.85;;;13.52;69.39
84994;BME280;75309;44.830;20.460;2024-03-17T01:06:20;101173.21;;;13.53;68.74
84994;BME280;75309;44.830;20.460;2024-03-17T01:08:48;101169.03;;;13.56;68.49
84994;BME280;75309;44.830;20.460;2024-03-17T01:11:16;101172.27;;;13.59;68.59
84994;BME280;75309;44.830;20.460;2024-03-17T01:13:48;101170.64;;;13.61;68.46
84994;BME280;75309;44.830;20.460;2024-03-17T01:16:15;101168.77;;;13.62;68.32
84994;BME280;75309;44.830;20.460;2024-03-17T01:18:43;101167.29;;;13.59;68.57
84994;BME280;75309;44.830;20.460;2024-03-17T01:21:13;101170.30;;;13.57;68.37
84994;BME280;75309;44.830;20.460;2024-03-17T01:23:40;101171.91;;;13.55;68.77
84994;BME280;75309;44.830;20.460;2024-03-17T01:26:08;101169.92;;;13.53;68.17
84994;BME280;75309;44.830;20.460;2024-03-17T01:28:36;101172.69;;;13.53;68.59
84994;BME280;75309;44.830;20.460;2024-03-17T01:31:07;101166.38;;;13.54;68.40
84994;BME280;75309;44.830;20.460;2024-03-17T01:33:35;101161.60;;;13.55;68.30
84994;BME280;75309;44.830;20.460;2024-03-17T01:36:03;101156.94;;;13.59;68.44
84994;BME280;75309;44.830;20.460;2024-03-17T01:38:30;101159.86;;;13.63;68.44
84994;BME280;75309;44.830;20.460;2024-03-17T01:41:00;101157.24;;;13.66;68.59
84994;BME280;75309;44.830;20.460;2024-03-17T01:43:28;101153.98;;;13.70;68.63
84994;BME280;75309;44.830;20.460;2024-03-17T01:45:57;101152.24;;;13.74;68.46
84994;BME280;75309;44.830;20.460;2024-03-17T01:48:26;101157.86;;;13.76;68.22
84994;BME280;75309;44.830;20.460;2024-03-17T01:50:56;101157.25;;;13.78;67.96
84994;BME280;75309;44.830;20.460;2024-03-17T01:53:25;101154.94;;;13.80;67.88
84994;BME280;75309;44.830;20.460;2024-03-17T01:55:56;101154.80;;;13.81;67.86
84994;BME280;75309;44.830;20.460;2024-03-17T01:58:29;101155.63;;;13.80;67.84
84994;BME280;75309;44.830;20.460;2024-03-17T02:00:58;101159.40;;;13.80;67.73
84994;BME280;75309;44.830;20.460;2024-03-17T02:03:26;101164.23;;;13.80;67.65
84994;BME280;75309;44.830;20.460;2024-03-17T02:05:54;101162.64;;;13.79;67.70
84994;BME280;75309;44.830;20.460;2024-03-17T02:08:21;101164.13;;;13.78;67.60
84994;BME280;75309;44.830;20.460;2024-03-17T02:10:53;101164.02;;;13.75;67.56
84994;BME280;75309;44.830;20.460;2024-03-17T02:13:21;101165.77;;;13.71;67.61
84994;BME280;75309;44.830;20.460;2024-03-17T02:15:49;101171.14;;;13.72;67.83
84994;BME280;75309;44.830;20.460;2024-03-17T02:18:18;101174.48;;;13.75;67.78
84994;BME280;75309;44.830;20.460;2024-03-17T02:20:46;101176.54;;;13.74;67.79
84994;BME280;75309;44.830;20.460;2024-03-17T02:23:22;101175.95;;;13.72;68.27
84994;BME280;75309;44.830;20.460;2024-03-17T02:26:04;101175.55;;;13.71;68.27
84994;BME280;75309;44.830;20.460;2024-03-17T02:28:42;101175.71;;;13.70;68.22
84994;BME280;75309;44.830;20.460;2024-03-17T02:31:13;101173.46;;;13.70;68.12
84994;BME280;75309;44.830;20.460;2024-03-17T02:33:42;101175.02;;;13.70;68.04
84994;BME280;75309;44.830;20.460;2024-03-17T02:36:11;101171.17;;;13.69;67.96
84994;BME280;75309;44.830;20.460;2024-03-17T02:38:40;101173.23;;;13.68;67.91
84994;BME280;75309;44.830;20.460;2024-03-17T02:41:27;101173.33;;;13.67;68.01
84994;BME280;75309;44.830;20.460;2024-03-17T02:43:56;101168.48;;;13.67;67.73
84994;BME280;75309;44.830;20.460;2024-03-17T02:46:23;101172.73;;;13.65;67.82
84994;BME280;75309;44.830;20.460;2024-03-17T02:48:52;101174.10;;;13.65;67.79
84994;BME280;75309;44.830;20.460;2024-03-17T02:51:22;101175.62;;;13.65;67.82
84994;BME280;75309;44.830;20.460;2024-03-17T02:53:51;101177.92;;;13.62;67.88
84994;BME280;75309;44.830;20.460;2024-03-17T02:56:19;101179.42;;;13.57;68.63
84994;BME280;75309;44.830;20.460;2024-03-17T02:58:47;101176.48;;;13.50;69.08
84994;BME280;75309;44.830;20.460;2024-03-17T03:01:17;101175.20;;;13.44;69.48
84994;BME280;75309;44.830;20.460;2024-03-17T03:03:45;101175.27;;;13.38;70.26
84994;BME280;75309;44.830;20.460;2024-03-17T03:06:15;101173.52;;;13.33;70.11
84994;BME280;75309;44.830;20.460;2024-03-17T03:08:46;101173.93;;;13.31;69.84
84994;BME280;75309;44.830;20.460;2024-03-17T03:11:18;101177.48;;;13.34;69.85
84994;BME280;75309;44.830;20.460;2024-03-17T03:13:46;101176.05;;;13.35;69.61
84994;BME280;75309;44.830;20.460;2024-03-17T03:16:14;101173.00;;;13.37;69.49
84994;BME280;75309;44.830;20.460;2024-03-17T03:18:42;101176.79;;;13.37;69.50
84994;BME280;75309;44.830;20.460;2024-03-17T03:21:11;101176.29;;;13.37;69.51
84994;BME280;75309;44.830;20.460;2024-03-17T03:23:44;101168.84;;;13.36;69.29
84994;BME280;75309;44.830;20.460;2024-03-17T03:26:12;101169.88;;;13.36;69.17
84994;BME280;75309;44.830;20.460;2024-03-17T03:28:40;101169.86;;;13.36;69.13
84994;BME280;75309;44.830;20.460;2024-03-17T03:31:11;101173.46;;;13.36;69.12
84994;BME280;75309;44.830;20.460;2024-03-17T03:33:41;101179.13;;;13.32;69.48
84994;BME280;75309;44.830;20.460;2024-03-17T03:36:14;101181.52;;;13.28;69.73
84994;BME280;75309;44.830;20.460;2024-03-17T03:38:43;101180.98;;;13.24;70.18
84994;BME280;75309;44.830;20.460;2024-03-17T03:41:19;101176.22;;;13.21;70.61
84994;BME280;75309;44.830;20.460;2024-03-17T03:43:48;101182.79;;;13.18;70.53
84994;BME280;75309;44.830;20.460;2024-03-17T03:46:15;101183.85;;;13.16;70.58
84994;BME280;75309;44.830;20.460;2024-03-17T03:48:43;101183.64;;;13.15;70.55
84994;BME280;75309;44.830;20.460;2024-03-17T03:51:11;101184.73;;;13.12;70.98
84994;BME280;75309;44.830;20.460;2024-03-17T03:53:39;101186.53;;;13.11;70.62
84994;BME280;75309;44.830;20.460;2024-03-17T03:56:07;101187.38;;;13.06;71.35
84994;BME280;75309;44.830;20.460;2024-03-17T03:58:36;101186.44;;;12.97;72.88
84994;BME280;75309;44.830;20.460;2024-03-17T04:01:08;101184.63;;;12.91;71.84
84994;BME280;75309;44.830;20.460;2024-03-17T04:03:36;101183.43;;;12.81;73.06
84994;BME280;75309;44.830;20.460;2024-03-17T04:08:34;101194.09;;;12.66;74.26
84994;BME280;75309;44.830;20.460;2024-03-17T04:11:02;101192.63;;;12.58;74.92
84994;BME280;75309;44.830;20.460;2024-03-17T04:13:30;101189.33;;;12.61;74.03
84994;BME280;75309;44.830;20.460;2024-03-17T04:16:05;101187.36;;;12.66;73.27
84994;BME280;75309;44.830;20.460;2024-03-17T04:18:34;101191.08;;;12.72;73.22
84994;BME280;75309;44.830;20.460;2024-03-17T04:21:04;101190.80;;;12.77;73.03
84994;BME280;75309;44.830;20.460;2024-03-17T04:23:34;101187.93;;;12.82;72.87
84994;BME280;75309;44.830;20.460;2024-03-17T04:26:03;101190.33;;;12.85;72.49
84994;BME280;75309;44.830;20.460;2024-03-17T04:28:31;101190.55;;;12.86;72.01
84994;BME280;75309;44.830;20.460;2024-03-17T04:31:06;101196.03;;;12.85;72.32
84994;BME280;75309;44.830;20.460;2024-03-17T04:33:35;101199.71;;;12.87;71.70
84994;BME280;75309;44.830;20.460;2024-03-17T04:36:04;101199.20;;;12.87;71.93
84994;BME280;75309;44.830;20.460;2024-03-17T04:38:31;101199.23;;;12.84;72.27
84994;BME280;75309;44.830;20.460;2024-03-17T04:40:59;101202.17;;;12.84;71.72
84994;BME280;75309;44.830;20.460;2024-03-17T04:43:36;101199.63;;;12.85;72.17
84994;BME280;75309;44.830;20.460;2024-03-17T04:46:05;101197.38;;;12.85;72.44
84994;BME280;75309;44.830;20.460;2024-03-17T04:48:34;101196.77;;;12.86;72.09
84994;BME280;75309;44.830;20.460;2024-03-17T04:51:02;101197.23;;;12.89;72.21
84994;BME280;75309;44.830;20.460;2024-03-17T04:53:29;101195.16;;;12.92;72.10
84994;BME280;75309;44.830;20.460;2024-03-17T04:56:04;101197.95;;;12.93;72.03
84994;BME280;75309;44.830;20.460;2024-03-17T04:58:33;101198.35;;;12.94;71.64
84994;BME280;75309;44.830;20.460;2024-03-17T05:01:09;101204.51;;;12.93;72.11
84994;BME280;75309;44.830;20.460;2024-03-17T05:03:37;101203.43;;;12.93;71.76
84994;BME280;75309;44.830;20.460;2024-03-17T05:06:05;101213.64;;;12.90;72.02
84994;BME280;75309;44.830;20.460;2024-03-17T05:08:34;101221.59;;;12.84;72.71
84994;BME280;75309;44.830;20.460;2024-03-17T05:11:05;101221.05;;;12.76;72.80
84994;BME280;75309;44.830;20.460;2024-03-17T05:13:34;101222.70;;;12.71;72.42
84994;BME280;75309;44.830;20.460;2024-03-17T05:16:03;101224.21;;;12.67;72.86
84994;BME280;75309;44.830;20.460;2024-03-17T05:18:32;101223.85;;;12.67;72.65
84994;BME280;75309;44.830;20.460;2024-03-17T05:21:05;101229.17;;;12.70;72.39
84994;BME280;75309;44.830;20.460;2024-03-17T05:23:35;101232.83;;;12.75;72.51
84994;BME280;75309;44.830;20.460;2024-03-17T05:26:04;101236.86;;;12.79;73.11
84994;BME280;75309;44.830;20.460;2024-03-17T05:28:34;101241.56;;;12.84;72.41
84994;BME280;75309;44.830;20.460;2024-03-17T05:31:02;101244.39;;;12.89;72.72
84994;BME280;75309;44.830;20.460;2024-03-17T05:33:29;101248.02;;;12.90;72.58
84994;BME280;75309;44.830;20.460;2024-03-17T05:35:59;101250.35;;;12.88;72.68
84994;BME280;75309;44.830;20.460;2024-03-17T05:38:27;101254.36;;;12.82;73.17
84994;BME280;75309;44.830;20.460;2024-03-17T05:41:01;101263.65;;;12.79;73.38
84994;BME280;75309;44.830;20.460;2024-03-17T05:43:31;101257.42;;;12.75;73.28
84994;BME280;75309;44.830;20.460;2024-03-17T05:46:05;101260.60;;;12.73;73.26
84994;BME280;75309;44.830;20.460;2024-03-17T05:48:34;101262.29;;;12.68;74.07
84994;BME280;75309;44.830;20.460;2024-03-17T05:51:06;101264.41;;;12.69;73.20
84994;BME280;75309;44.830;20.460;2024-03-17T05:53:35;101264.71;;;12.72;73.48
84994;BME280;75309;44.830;20.460;2024-03-17T05:56:07;101266.56;;;12.71;73.54
84994;BME280;75309;44.830;20.460;2024-03-17T05:58:41;101267.02;;;12.70;73.42
84994;BME280;75309;44.830;20.460;2024-03-17T06:01:10;101269.19;;;12.65;73.56
84994;BME280;75309;44.830;20.460;2024-03-17T06:03:38;101272.18;;;12.53;73.95
84994;BME280;75309;44.830;20.460;2024-03-17T06:06:08;101271.09;;;12.59;73.21
84994;BME280;75309;44.830;20.460;2024-03-17T06:08:42;101270.13;;;12.60;73.34
84994;BME280;75309;44.830;20.460;2024-03-17T06:11:10;101272.36;;;12.63;73.00
84994;BME280;75309;44.830;20.460;2024-03-17T06:13:38;101278.46;;;12.65;73.06
84994;BME280;75309;44.830;20.460;2024-03-17T06:16:06;101282.73;;;12.65;73.02
84994;BME280;75309;44.830;20.460;2024-03-17T06:18:34;101285.14;;;12.65;73.22
84994;BME280;75309;44.830;20.460;2024-03-17T06:21:04;101287.88;;;12.57;73.49
84994;BME280;75309;44.830;20.460;2024-03-17T06:23:32;101289.88;;;12.56;73.38
84994;BME280;75309;44.830;20.460;2024-03-17T06:26:00;101294.54;;;12.53;73.58
84994;BME280;75309;44.830;20.460;2024-03-17T06:28:30;101298.55;;;12.48;73.87
84994;BME280;75309;44.830;20.460;2024-03-17T06:30:59;101303.73;;;12.41;74.35
84994;BME280;75309;44.830;20.460;2024-03-17T06:33:27;101304.27;;;12.38;74.52
84994;BME280;75309;44.830;20.460;2024-03-17T06:36:05;101305.02;;;12.43;74.21
84994;BME280;75309;44.830;20.460;2024-03-17T06:38:35;101299.52;;;12.46;74.06
84994;BME280;75309;44.830;20.460;2024-03-17T06:41:03;101302.78;;;12.56;73.50
84994;BME280;75309;44.830;20.460;2024-03-17T06:43:31;101302.67;;;12.64;73.20
84994;BME280;75309;44.830;20.460;2024-03-17T06:46:01;101304.08;;;12.72;72.90
84994;BME280;75309;44.830;20.460;2024-03-17T06:48:29;101302.75;;;12.80;72.51
84994;BME280;75309;44.830;20.460;2024-03-17T06:50:57;101308.52;;;12.89;72.19
84994;BME280;75309;44.830;20.460;2024-03-17T06:53:25;101304.70;;;12.98;71.61
84994;BME280;75309;44.830;20.460;2024-03-17T06:55:57;101304.72;;;13.09;71.12
84994;BME280;75309;44.830;20.460;2024-03-17T06:58:27;101312.08;;;13.19;70.70
84994;BME280;75309;44.830;20.460;2024-03-17T07:01:00;101320.13;;;13.28;70.22
84994;BME280;75309;44.830;20.460;2024-03-17T07:03:30;101320.88;;;13.37;69.43
84994;BME280;75309;44.830;20.460;2024-03-17T07:06:00;101317.13;;;13.48;69.23
84994;BME280;75309;44.830;20.460;2024-03-17T07:08:32;101319.69;;;13.59;68.48
84994;BME280;75309;44.830;20.460;2024-03-17T07:11:08;101322.73;;;13.68;68.68
84994;BME280;75309;44.830;20.460;2024-03-17T07:13:37;101334.98;;;13.73;67.28
84994;BME280;75309;44.830;20.460;2024-03-17T07:16:06;101340.63;;;13.72;66.94
84994;BME280;75309;44.830;20.460;2024-03-17T07:18:34;101344.02;;;13.74;67.21
84994;BME280;75309;44.830;20.460;2024-03-17T07:21:03;101347.00;;;13.64;67.42
84994;BME280;75309;44.830;20.460;2024-03-17T07:23:32;101348.56;;;13.65;67.25
84994;BME280;75309;44.830;20.460;2024-03-17T07:26:01;101353.88;;;13.60;67.00
84994;BME280;75309;44.830;20.460;2024-03-17T07:28:29;101357.62;;;13.49;67.53
84994;BME280;75309;44.830;20.460;2024-03-17T07:30:59;101356.70;;;13.58;67.45
84994;BME280;75309;44.830;20.460;2024-03-17T07:33:30;101358.50;;;13.60;67.79
84994;BME280;75309;44.830;20.460;2024-03-17T07:35:58;101366.38;;;13.62;67.61
84994;BME280;75309;44.830;20.460;2024-03-17T07:38:29;101367.46;;;13.57;67.36
84994;BME280;75309;44.830;20.460;2024-03-17T07:41:06;101372.32;;;13.43;66.59
84994;BME280;75309;44.830;20.460;2024-03-17T07:43:36;101375.16;;;13.41;66.54
84994;BME280;75309;44.830;20.460;2024-03-17T07:46:05;101383.06;;;13.31;66.59
84994;BME280;75309;44.830;20.460;2024-03-17T07:48:36;101380.95;;;13.26;65.63
84994;BME280;75309;44.830;20.460;2024-03-17T07:51:09;101382.58;;;13.28;64.62
84994;BME280;75309;44.830;20.460;2024-03-17T07:53:38;101384.20;;;13.26;64.10
84994;BME280;75309;44.830;20.460;2024-03-17T07:56:08;101380.06;;;13.22;64.28
84994;BME280;75309;44.830;20.460;2024-03-17T07:58:43;101375.89;;;13.21;64.54
84994;BME280;75309;44.830;20.460;2024-03-17T08:01:14;101373.58;;;13.26;64.60
84994;BME280;75309;44.830;20.460;2024-03-17T08:03:48;101374.84;;;13.32;64.93
84994;BME280;75309;44.830;20.460;2024-03-17T08:06:22;101372.67;;;13.30;65.16
84994;BME280;75309;44.830;20.460;2024-03-17T08:08:52;101376.41;;;13.28;65.52
84994;BME280;75309;44.830;20.460;2024-03-17T08:11:22;101373.27;;;13.20;66.11
84994;BME280;75309;44.830;20.460;2024-03-17T08:13:50;101370.54;;;13.11;66.27
84994;BME280;75309;44.830;20.460;2024-03-17T08:16:19;101373.29;;;13.21;65.93
84994;BME280;75309;44.830;20.460;2024-03-17T08:18:48;101376.34;;;13.23;65.89
84994;BME280;75309;44.830;20.460;2024-03-17T08:21:16;101376.54;;;12.93;66.63
84994;BME280;75309;44.830;20.460;2024-03-17T08:23:44;101380.88;;;12.90;66.63
84994;BME280;75309;44.830;20.460;2024-03-17T08:26:15;101389.15;;;12.97;65.90
84994;BME280;75309;44.830;20.460;2024-03-17T08:28:43;101387.02;;;13.03;65.49
84994;BME280;75309;44.830;20.460;2024-03-17T08:31:12;101387.52;;;13.06;65.20
84994;BME280;75309;44.830;20.460;2024-03-17T08:33:43;101384.92;;;13.03;65.74
84994;BME280;75309;44.830;20.460;2024-03-17T08:36:11;101395.70;;;13.08;64.87
84994;BME280;75309;44.830;20.460;2024-03-17T08:38:40;101390.59;;;12.98;65.14
84994;BME280;75309;44.830;20.460;2024-03-17T08:41:09;101386.48;;;13.06;64.64
84994;BME280;75309;44.830;20.460;2024-03-17T08:43:37;101389.64;;;13.00;64.59
84994;BME280;75309;44.830;20.460;2024-03-17T08:46:07;101390.25;;;13.02;63.78
84994;BME280;75309;44.830;20.460;2024-03-17T08:48:37;101393.30;;;12.98;63.89
84994;BME280;75309;44.830;20.460;2024-03-17T08:51:06;101394.15;;;13.01;63.25
84994;BME280;75309;44.830;20.460;2024-03-17T08:53:34;101394.16;;;12.98;63.21
84994;BME280;75309;44.830;20.460;2024-03-17T08:56:03;101391.21;;;12.94;63.27
84994;BME280;75309;44.830;20.460;2024-03-17T08:58:31;101391.53;;;12.97;63.02
84994;BME280;75309;44.830;20.460;2024-03-17T09:01:03;101394.64;;;13.00;61.80
84994;BME280;75309;44.830;20.460;2024-03-17T09:03:31;101390.38;;;13.01;61.10
84994;BME280;75309;44.830;20.460;2024-03-17T09:05:59;101394.52;;;13.09;60.59
84994;BME280;75309;44.830;20.460;2024-03-17T09:08:27;101389.08;;;13.06;60.49
84994;BME280;75309;44.830;20.460;2024-03-17T09:10:55;101389.02;;;13.09;60.17
84994;BME280;75309;44.830;20.460;2024-03-17T09:13:24;101387.14;;;12.99;59.76
84994;BME280;75309;44.830;20.460;2024-03-17T09:15:58;101390.64;;;12.96;60.10
84994;BME280;75309;44.830;20.460;2024-03-17T09:18:34;101394.45;;;12.93;60.09
84994;BME280;75309;44.830;20.460;2024-03-17T09:21:04;101393.46;;;12.97;59.71
84994;BME280;75309;44.830;20.460;2024-03-17T09:23:34;101391.69;;;13.00;59.55
84994;BME280;75309;44.830;20.460;2024-03-17T09:26:05;101392.10;;;13.05;59.51
84994;BME280;75309;44.830;20.460;2024-03-17T09:28:36;101387.98;;;13.12;58.57
84994;BME280;75309;44.830;20.460;2024-03-17T09:31:04;101385.44;;;13.23;58.13
84994;BME280;75309;44.830;20.460;2024-03-17T09:33:35;101391.77;;;13.32;57.12
84994;BME280;75309;44.830;20.460;2024-03-17T09:36:08;101389.41;;;13.40;55.47
84994;BME280;75309;44.830;20.460;2024-03-17T09:38:38;101387.80;;;13.39;55.85
84994;BME280;75309;44.830;20.460;2024-03-17T09:41:07;101392.48;;;13.39;55.16
84994;BME280;75309;44.830;20.460;2024-03-17T09:43:35;101386.96;;;13.40;54.91
84994;BME280;75309;44.830;20.460;2024-03-17T09:46:04;101387.71;;;13.34;54.77
84994;BME280;75309;44.830;20.460;2024-03-17T09:48:34;101378.32;;;13.38;54.69
84994;BME280;75309;44.830;20.460;2024-03-17T09:51:03;101367.33;;;13.57;53.96
84994;BME280;75309;44.830;20.460;2024-03-17T09:53:32;101368.98;;;13.63;54.08
84994;BME280;75309;44.830;20.460;2024-03-17T09:56:16;101360.83;;;13.58;53.17
84994;BME280;75309;44.830;20.460;2024-03-17T09:58:46;101365.23;;;13.75;54.27
84994;BME280;75309;44.830;20.460;2024-03-17T10:01:15;101369.05;;;13.90;54.07
84994;BME280;75309;44.830;20.460;2024-03-17T10:03:51;101361.29;;;14.01;53.06
84994;BME280;75309;44.830;20.460;2024-03-17T10:06:23;101365.58;;;14.08;51.84
84994;BME280;75309;44.830;20.460;2024-03-17T10:08:53;101363.85;;;14.20;48.83
84994;BME280;75309;44.830;20.460;2024-03-17T10:11:31;101362.05;;;14.22;47.50
84994;BME280;75309;44.830;20.460;2024-03-17T10:14:07;101364.77;;;14.20;47.49
84994;BME280;75309;44.830;20.460;2024-03-17T10:16:40;101362.09;;;14.27;47.51
84994;BME280;75309;44.830;20.460;2024-03-17T10:19:15;101361.38;;;14.30;47.06
84994;BME280;75309;44.830;20.460;2024-03-17T10:21:45;101360.02;;;14.34;45.50
84994;BME280;75309;44.830;20.460;2024-03-17T10:24:24;101361.91;;;14.38;45.01
84994;BME280;75309;44.830;20.460;2024-03-17T10:27:01;101366.45;;;14.43;44.55
84994;BME280;75309;44.830;20.460;2024-03-17T10:32:04;101361.38;;;14.53;45.04
84994;BME280;75309;44.830;20.460;2024-03-17T10:34:33;101368.60;;;14.64;44.33
84994;BME280;75309;44.830;20.460;2024-03-17T10:37:20;101365.98;;;14.67;44.11
84994;BME280;75309;44.830;20.460;2024-03-17T10:39:54;101371.02;;;14.60;44.63
84994;BME280;75309;44.830;20.460;2024-03-17T10:42:27;101374.05;;;14.63;45.46
84994;BME280;75309;44.830;20.460;2024-03-17T10:45:08;101377.30;;;14.58;45.63
84994;BME280;75309;44.830;20.460;2024-03-17T10:47:36;101385.36;;;14.57;44.97
84994;BME280;75309;44.830;20.460;2024-03-17T10:50:06;101386.88;;;14.53;44.65
84994;BME280;75309;44.830;20.460;2024-03-17T10:52:37;101386.54;;;14.56;43.56
84994;BME280;75309;44.830;20.460;2024-03-17T10:55:23;101383.48;;;14.46;44.40
84994;BME280;75309;44.830;20.460;2024-03-17T10:57:55;101387.15;;;14.35;44.15
84994;BME280;75309;44.830;20.460;2024-03-17T11:00:25;101383.92;;;14.37;44.87
84994;BME280;75309;44.830;20.460;2024-03-17T11:02:57;101387.15;;;14.35;45.34
84994;BME280;75309;44.830;20.460;2024-03-17T11:05:27;101385.23;;;14.39;45.48
84994;BME280;75309;44.830;20.460;2024-03-17T11:08:00;101386.77;;;14.42;45.46
84994;BME280;75309;44.830;20.460;2024-03-17T11:10:38;101387.58;;;14.45;45.47
84994;BME280;75309;44.830;20.460;2024-03-17T11:13:22;101388.34;;;14.43;45.99
84994;BME280;75309;44.830;20.460;2024-03-17T11:15:51;101386.80;;;14.47;46.13
84994;BME280;75309;44.830;20.460;2024-03-17T11:21:00;101386.08;;;14.31;46.46
84994;BME280;75309;44.830;20.460;2024-03-17T11:23:35;101379.52;;;14.27;47.11
84994;BME280;75309;44.830;20.460;2024-03-17T11:26:05;101372.71;;;14.33;46.95
84994;BME280;75309;44.830;20.460;2024-03-17T11:28:44;101371.02;;;14.29;47.20
84994;BME280;75309;44.830;20.460;2024-03-17T11:31:35;101368.48;;;14.19;47.77
84994;BME280;75309;44.830;20.460;2024-03-17T11:34:06;101375.41;;;14.12;48.05
84994;BME280;75309;44.830;20.460;2024-03-17T11:36:52;101372.02;;;14.10;47.76
84994;BME280;75309;44.830;20.460;2024-03-17T11:39:48;101371.46;;;14.13;48.69
84994;BME280;75309;44.830;20.460;2024-03-17T11:42:27;101363.34;;;14.16;48.62
84994;BME280;75309;44.830;20.460;2024-03-17T11:45:03;101358.70;;;14.24;48.53
84994;BME280;75309;44.830;20.460;2024-03-17T11:47:35;101355.50;;;14.22;47.87
84994;BME280;75309;44.830;20.460;2024-03-17T11:50:05;101349.87;;;14.27;48.12
84994;BME280;75309;44.830;20.460;2024-03-17T11:52:38;101348.43;;;14.37;48.06
84994;BME280;75309;44.830;20.460;2024-03-17T11:55:17;101345.88;;;14.46;48.46
84994;BME280;75309;44.830;20.460;2024-03-17T11:57:46;101337.16;;;14.55;48.24
84994;BME280;75309;44.830;20.460;2024-03-17T12:00:22;101329.24;;;14.64;47.73
84994;BME280;75309;44.830;20.460;2024-03-17T12:02:51;101327.09;;;14.82;47.53
84994;BME280;75309;44.830;20.460;2024-03-17T12:05:32;101328.84;;;14.91;47.46
84994;BME280;75309;44.830;20.460;2024-03-17T12:08:00;101323.92;;;14.80;47.55
84994;BME280;75309;44.830;20.460;2024-03-17T12:10:28;101320.73;;;14.82;46.98
84994;BME280;75309;44.830;20.460;2024-03-17T12:12:56;101318.27;;;14.85;46.86
84994;BME280;75309;44.830;20.460;2024-03-17T12:15:24;101312.79;;;14.99;47.16
84994;BME280;75309;44.830;20.460;2024-03-17T12:17:53;101310.95;;;15.05;46.81
84994;BME280;75309;44.830;20.460;2024-03-17T12:20:21;101317.21;;;15.06;47.38
84994;BME280;75309;44.830;20.460;2024-03-17T12:22:51;101315.66;;;15.02;46.94
84994;BME280;75309;44.830;20.460;2024-03-17T12:25:23;101311.12;;;14.92;47.31
84994;BME280;75309;44.830;20.460;2024-03-17T12:27:54;101307.52;;;14.89;47.76
84994;BME280;75309;44.830;20.460;2024-03-17T12:30:22;101304.79;;;14.89;48.06
84994;BME280;75309;44.830;20.460;2024-03-17T12:32:51;101303.39;;;14.89;47.11
84994;BME280;75309;44.830;20.460;2024-03-17T12:35:20;101297.96;;;14.83;47.38
84994;BME280;75309;44.830;20.460;2024-03-17T12:37:48;101293.64;;;14.91;46.93
84994;BME280;75309;44.830;20.460;2024-03-17T12:40:23;101291.17;;;14.94;46.96
84994;BME280;75309;44.830;20.460;2024-03-17T12:42:51;101290.23;;;15.04;46.93
84994;BME280;75309;44.830;20.460;2024-03-17T12:45:21;101290.53;;;15.08;46.89
84994;BME280;75309;44.830;20.460;2024-03-17T12:47:51;101290.65;;;15.02;46.57
84994;BME280;75309;44.830;20.460;2024-03-17T12:50:19;101286.13;;;15.01;45.38
84994;BME280;75309;44.830;20.460;2024-03-17T12:52:51;101288.39;;;15.02;46.23
84994;BME280;75309;44.830;20.460;2024-03-17T12:55:20;101287.23;;;15.03;46.19
84994;BME280;75309;44.830;20.460;2024-03-17T12:58:08;101286.27;;;15.05;46.22
84994;BME280;75309;44.830;20.460;2024-03-17T13:01:02;101285.41;;;15.01;47.08
84994;BME280;75309;44.830;20.460;2024-03-17T13:06:03;101286.19;;;14.99;47.25
84994;BME280;75309;44.830;20.460;2024-03-17T13:08:33;101279.27;;;14.94;47.04